aviador You're here:

PWAK Decoded Metar

WAKE ISLAND AIRF in _UNIDENTIFIED
Report Time2018-02-21 20:58:00
UTC Time2018-02-21 21:13:49
Flight Rules mvfr MVFR
Wind070° at 11 kt
W.Decomp.*RWY 10: 8.8 kt HW 6.6 kt LCW
W.Rank070° ranks 1
Current wind is below 070° avg. (12.7)
Visibility9999 m
Phenomena:N/A
Clouds:Broken 024 Hf
Expected CloudBase > 1,200 ft AGL from Temp-Dew spread
Ceiling2,400 ft
Temp25°C (ISA +10)
Dew Point22°C (83% RH)
QNH1017 hPa
Density Alt1,388 ft
Elevation13 ft
Report Wrong Elevation
Raw Report
PWAK 212058Z AUTO 07011KT 9999 BKN024 25/22 A3002 RMK AO2 SLP172
52022=

Extra information for PWAK:More info

Metar Taf Metar & Taf Last 4 Metars F.Rules Stats Wind Profile Meteogram Temp Stats Airport Information Weather charts Add Link Nearby VenuesMetar ALERT Operation Metar Decoded Social comments